createdAt,value
2018-12-26T00:01:32.933Z,37.80
2018-12-26T00:04:01.214Z,24.60
2018-12-26T00:06:29.410Z,29.27
2018-12-26T00:08:57.626Z,24.90
2018-12-26T00:11:25.818Z,21.20
2018-12-26T00:13:54.022Z,24.13
2018-12-26T00:16:22.243Z,21.67
2018-12-26T00:18:50.451Z,22.73
2018-12-26T00:21:18.732Z,19.60
2018-12-26T00:23:46.925Z,21.33
2018-12-26T00:26:15.219Z,23.00
2018-12-26T00:28:43.491Z,21.60
2018-12-26T00:31:11.781Z,21.30
2018-12-26T00:33:39.995Z,23.67
2018-12-26T00:36:08.306Z,22.83
2018-12-26T00:38:36.583Z,20.43
2018-12-26T00:41:04.865Z,21.17
2018-12-26T00:43:33.138Z,17.13
2018-12-26T00:46:01.433Z,21.40
2018-12-26T00:48:29.633Z,18.40
2018-12-26T00:50:57.922Z,24.23
2018-12-26T00:53:26.194Z,22.17
2018-12-26T00:55:54.410Z,22.00
2018-12-26T00:58:22.678Z,21.10
2018-12-26T01:00:50.967Z,19.33
2018-12-26T01:03:19.153Z,20.50
2018-12-26T01:05:47.408Z,22.20
2018-12-26T01:08:15.751Z,22.27
2018-12-26T01:10:44.044Z,21.23
2018-12-26T01:13:12.309Z,22.03
2018-12-26T01:15:40.530Z,26.57
2018-12-26T01:18:08.798Z,23.67
2018-12-26T01:20:37.090Z,20.73
2018-12-26T01:23:05.295Z,25.63
2018-12-26T01:25:33.590Z,22.47
2018-12-26T01:28:01.857Z,22.90
2018-12-26T01:30:30.078Z,24.63
2018-12-26T01:32:58.350Z,23.47
2018-12-26T01:35:26.542Z,26.30
2018-12-26T01:37:54.762Z,21.57
2018-12-26T01:40:23.026Z,27.20
2018-12-26T01:42:51.246Z,24.97
2018-12-26T01:45:19.514Z,22.60
2018-12-26T01:47:47.730Z,22.43
2018-12-26T01:50:15.927Z,22.23
2018-12-26T01:52:44.217Z,23.70
2018-12-26T01:55:12.413Z,22.13
2018-12-26T01:57:40.699Z,23.30
2018-12-26T02:00:09.038Z,23.80
2018-12-26T02:02:37.334Z,24.27
2018-12-26T02:05:05.530Z,24.67
2018-12-26T02:07:33.821Z,27.00
2018-12-26T02:10:02.023Z,24.00
2018-12-26T02:12:30.302Z,28.30
2018-12-26T02:14:58.502Z,25.13
2018-12-26T02:17:26.721Z,27.77
2018-12-26T02:19:54.990Z,23.60
2018-12-26T02:22:23.284Z,21.27
2018-12-26T02:24:51.545Z,24.23
2018-12-26T02:27:19.762Z,23.17
2018-12-26T02:29:48.039Z,24.90
2018-12-26T02:32:16.322Z,22.90
2018-12-26T02:34:44.527Z,26.03
2018-12-26T02:37:12.809Z,22.20
2018-12-26T02:39:41.014Z,23.40
2018-12-26T02:42:09.305Z,24.87
2018-12-26T02:44:37.499Z,25.00
2018-12-26T02:47:05.794Z,27.77
2018-12-26T02:49:34.067Z,26.77
2018-12-26T02:52:02.360Z,23.90
2018-12-26T02:54:30.629Z,25.80
2018-12-26T02:56:58.904Z,23.13
2018-12-26T02:59:27.190Z,23.87
2018-12-26T03:01:55.402Z,24.80
2018-12-26T03:04:23.698Z,22.53
2018-12-26T03:06:51.954Z,26.97
2018-12-26T03:09:20.241Z,28.87
2018-12-26T03:11:48.450Z,24.67
2018-12-26T03:14:16.739Z,26.33
2018-12-26T03:16:45.001Z,23.57
2018-12-26T03:19:13.289Z,25.70
2018-12-26T03:21:41.558Z,24.63
2018-12-26T03:24:09.851Z,26.60
2018-12-26T03:26:38.127Z,26.33
2018-12-26T03:29:06.354Z,27.40
2018-12-26T03:31:34.637Z,26.93
2018-12-26T03:34:02.922Z,28.30
2018-12-26T03:36:31.196Z,24.80
2018-12-26T03:38:59.562Z,28.70
2018-12-26T03:41:28.498Z,27.50
2018-12-26T03:43:56.727Z,25.47
2018-12-26T03:46:25.167Z,26.70
2018-12-26T03:48:53.563Z,27.67
2018-12-26T03:51:21.912Z,24.60
2018-12-26T03:53:50.266Z,22.83
2018-12-26T03:56:18.528Z,26.13
2018-12-26T03:58:46.818Z,20.77
2018-12-26T04:01:15.019Z,22.10
2018-12-26T04:03:43.301Z,22.20
2018-12-26T04:06:11.562Z,24.87
2018-12-26T04:08:39.930Z,25.00
2018-12-26T04:11:08.279Z,22.43
2018-12-26T04:13:36.748Z,25.60
2018-12-26T04:16:05.018Z,26.30
2018-12-26T04:18:33.302Z,20.90
2018-12-26T04:21:01.566Z,23.70
2018-12-26T04:23:29.766Z,23.97
2018-12-26T04:25:58.054Z,26.60
2018-12-26T04:28:26.330Z,21.20
2018-12-26T04:30:54.621Z,25.17
2018-12-26T04:33:22.909Z,21.67
2018-12-26T04:35:51.202Z,23.40
2018-12-26T04:38:19.406Z,21.30
2018-12-26T04:40:47.699Z,19.63
2018-12-26T04:43:15.970Z,20.70
2018-12-26T04:45:44.254Z,20.03
2018-12-26T04:48:12.454Z,19.27
2018-12-26T04:50:40.755Z,22.20
2018-12-26T04:53:09.022Z,20.17
2018-12-26T04:55:37.239Z,23.10
2018-12-26T04:58:05.510Z,21.43
2018-12-26T05:00:33.727Z,22.83
2018-12-26T05:03:01.925Z,23.13
2018-12-26T05:05:30.137Z,23.17
2018-12-26T05:07:58.342Z,21.13
2018-12-26T05:10:26.566Z,22.80
2018-12-26T05:12:54.848Z,18.97
2018-12-26T05:15:23.210Z,25.70
2018-12-26T05:17:51.473Z,22.50
2018-12-26T05:20:19.689Z,22.40
2018-12-26T05:22:47.890Z,22.63
2018-12-26T05:25:16.199Z,23.07
2018-12-26T05:27:44.454Z,23.27
2018-12-26T05:30:12.750Z,23.53
2018-12-26T05:32:41.018Z,24.37
2018-12-26T05:35:09.449Z,24.63
2018-12-26T05:37:37.652Z,24.10
2018-12-26T05:40:06.414Z,26.47
2018-12-26T05:42:34.614Z,23.17
2018-12-26T05:45:02.914Z,23.63
2018-12-26T05:47:31.186Z,23.57
2018-12-26T05:49:59.470Z,27.13
2018-12-26T05:52:27.674Z,25.73
2018-12-26T05:54:55.950Z,24.27
2018-12-26T05:57:24.238Z,23.60
2018-12-26T05:59:52.436Z,27.20
2018-12-26T06:02:20.738Z,25.53
2018-12-26T06:04:49.006Z,28.23
2018-12-26T06:07:17.230Z,28.43
2018-12-26T06:09:45.498Z,24.63
2018-12-26T06:12:13.715Z,26.97
2018-12-26T06:14:41.986Z,27.90
2018-12-26T06:17:10.273Z,25.27
2018-12-26T06:19:38.537Z,22.57
2018-12-26T06:22:06.762Z,22.50
2018-12-26T06:24:34.963Z,28.20
2018-12-26T06:27:03.255Z,22.50
2018-12-26T06:29:31.459Z,24.93
2018-12-26T06:31:59.758Z,23.07
2018-12-26T06:34:28.044Z,26.93
2018-12-26T06:36:56.338Z,25.63
2018-12-26T06:39:24.605Z,25.30
2018-12-26T06:41:52.910Z,25.93
2018-12-26T06:44:21.170Z,22.00
2018-12-26T06:46:49.390Z,25.97
2018-12-26T06:49:17.662Z,25.50
2018-12-26T06:51:45.887Z,23.07
2018-12-26T06:54:14.158Z,25.67
2018-12-26T06:56:42.446Z,22.53
2018-12-26T06:59:10.646Z,23.90
2018-12-26T07:01:38.948Z,25.70
2018-12-26T07:04:07.218Z,22.27
2018-12-26T07:06:35.510Z,26.50
2018-12-26T07:09:05.055Z,21.80
2018-12-26T07:11:33.358Z,24.20
2018-12-26T07:14:01.617Z,23.40
2018-12-26T07:16:29.822Z,23.10
2018-12-26T07:18:58.211Z,24.77
2018-12-26T07:21:26.486Z,26.40
2018-12-26T07:23:54.793Z,25.03
2018-12-26T07:26:22.991Z,24.80
2018-12-26T07:28:51.341Z,28.27
2018-12-26T07:31:19.610Z,24.97
2018-12-26T07:33:47.826Z,27.30
2018-12-26T07:36:16.022Z,25.83
2018-12-26T07:38:44.248Z,25.17
2018-12-26T07:41:12.509Z,24.70
2018-12-26T07:43:40.723Z,22.40
2018-12-26T07:46:09.007Z,26.00
2018-12-26T07:48:37.302Z,25.10
2018-12-26T07:51:05.562Z,22.50
2018-12-26T07:53:33.859Z,27.40
2018-12-26T07:56:02.130Z,27.33
2018-12-26T07:58:30.418Z,21.40
2018-12-26T08:00:58.690Z,23.27
2018-12-26T08:03:26.985Z,22.70
2018-12-26T08:05:55.258Z,23.57
2018-12-26T08:08:23.554Z,23.90
2018-12-26T08:10:51.827Z,25.40
2018-12-26T08:13:20.118Z,24.20
2018-12-26T08:15:48.386Z,24.80
2018-12-26T08:18:16.674Z,22.00
2018-12-26T08:20:44.875Z,22.43
2018-12-26T08:23:13.170Z,21.77
2018-12-26T08:25:41.444Z,28.47
2018-12-26T08:28:09.737Z,22.40
2018-12-26T08:30:38.001Z,21.77
2018-12-26T08:33:06.226Z,23.80
2018-12-26T08:35:34.507Z,20.37
2018-12-26T08:38:02.783Z,22.17
2018-12-26T08:40:31.073Z,21.60
2018-12-26T08:42:59.345Z,21.13
2018-12-26T08:45:27.629Z,24.17
2018-12-26T08:47:55.826Z,24.40
2018-12-26T08:50:24.119Z,21.87
2018-12-26T08:52:52.314Z,22.40
2018-12-26T08:55:20.529Z,24.27
2018-12-26T08:57:48.726Z,23.10
2018-12-26T09:00:16.937Z,23.67
2018-12-26T09:02:45.213Z,22.60
2018-12-26T09:05:13.425Z,24.57
2018-12-26T09:07:41.617Z,23.10
2018-12-26T09:10:10.414Z,22.60
2018-12-26T09:12:38.691Z,23.20
2018-12-26T09:15:06.907Z,21.07
2018-12-26T09:17:35.180Z,23.07
2018-12-26T09:20:03.842Z,22.37
2018-12-26T09:22:32.038Z,28.27
2018-12-26T09:25:00.262Z,27.53
2018-12-26T09:27:28.542Z,23.77
2018-12-26T09:29:56.839Z,25.23
2018-12-26T09:32:25.121Z,25.13
2018-12-26T09:34:53.415Z,23.17
2018-12-26T09:37:21.679Z,25.50
2018-12-26T09:39:49.965Z,23.73
2018-12-26T09:42:18.166Z,22.80
2018-12-26T09:44:54.157Z,24.60
2018-12-26T09:47:16.374Z,26.37
2018-12-26T09:49:44.678Z,22.47
2018-12-26T09:52:12.954Z,24.40
2018-12-26T09:54:41.237Z,21.80
2018-12-26T09:57:09.433Z,20.60
2018-12-26T09:59:37.649Z,22.13
2018-12-26T10:02:05.854Z,22.00
2018-12-26T10:04:34.185Z,20.77
2018-12-26T10:07:02.414Z,23.30
2018-12-26T10:09:30.677Z,22.30
2018-12-26T10:11:58.893Z,24.20
2018-12-26T10:14:27.093Z,19.80
2018-12-26T10:16:55.383Z,22.27
2018-12-26T10:19:23.658Z,26.53
2018-12-26T10:21:51.962Z,22.40
2018-12-26T10:24:20.229Z,19.23
2018-12-26T10:26:48.445Z,21.00
2018-12-26T10:29:16.646Z,22.90
2018-12-26T10:31:44.938Z,21.10
2018-12-26T10:34:13.206Z,21.93
2018-12-26T10:36:41.421Z,21.77
2018-12-26T10:39:09.686Z,21.03
2018-12-26T10:41:37.910Z,20.40
2018-12-26T10:44:06.181Z,24.37
2018-12-26T10:46:34.486Z,21.47
2018-12-26T10:49:02.766Z,20.27
2018-12-26T10:51:30.985Z,22.00
2018-12-26T10:53:59.174Z,23.33
2018-12-26T10:56:27.394Z,23.17
2018-12-26T10:58:55.658Z,19.80
2018-12-26T11:01:23.874Z,20.63
2018-12-26T11:03:52.142Z,25.33
2018-12-26T11:06:20.358Z,21.17
2018-12-26T11:08:48.630Z,23.90
2018-12-26T11:11:16.925Z,21.60
2018-12-26T11:13:45.189Z,24.03
2018-12-26T11:16:13.578Z,21.13
2018-12-26T11:18:41.926Z,23.03
2018-12-26T11:21:10.214Z,24.07
2018-12-26T11:23:38.491Z,21.47
2018-12-26T11:26:06.777Z,21.37
2018-12-26T11:28:34.986Z,18.97
2018-12-26T11:31:03.282Z,22.03
2018-12-26T11:33:31.473Z,21.87
2018-12-26T11:35:59.683Z,21.87
2018-12-26T11:38:27.975Z,22.97
2018-12-26T11:40:56.242Z,22.63
2018-12-26T11:43:24.534Z,21.00
2018-12-26T11:45:52.814Z,23.37
2018-12-26T11:48:21.138Z,21.87
2018-12-26T11:50:49.398Z,22.53
2018-12-26T11:53:18.137Z,25.17
2018-12-26T11:55:46.358Z,24.00
2018-12-26T11:58:14.650Z,29.67
2018-12-26T12:00:42.849Z,27.53
2018-12-26T12:03:11.078Z,23.23
2018-12-26T12:05:39.273Z,23.33
2018-12-26T12:08:07.507Z,23.87
2018-12-26T12:10:35.760Z,27.13
2018-12-26T12:13:04.045Z,28.40
2018-12-26T12:15:32.245Z,26.43
2018-12-26T12:18:00.542Z,35.70
2018-12-26T12:20:28.734Z,25.70
2018-12-26T12:22:56.949Z,24.93
2018-12-26T12:25:25.151Z,24.87
2018-12-26T12:27:53.441Z,25.47
2018-12-26T12:30:21.710Z,28.30
2018-12-26T12:32:50.001Z,26.43
2018-12-26T12:35:18.203Z,23.87
2018-12-26T12:37:46.502Z,22.93
2018-12-26T12:40:14.700Z,23.07
2018-12-26T12:42:43.050Z,21.00
2018-12-26T12:45:11.237Z,22.77
2018-12-26T12:47:39.521Z,24.77
2018-12-26T12:50:07.910Z,21.97
2018-12-26T12:52:36.138Z,21.00
2018-12-26T12:55:04.776Z,24.10
2018-12-26T12:57:33.129Z,22.03
2018-12-26T13:00:01.329Z,22.17
2018-12-26T13:02:29.598Z,24.73
2018-12-26T13:04:57.886Z,25.50
2018-12-26T13:07:26.154Z,27.80
2018-12-26T13:09:54.447Z,25.17
2018-12-26T13:12:22.718Z,23.10
2018-12-26T13:14:51.002Z,23.10
2018-12-26T13:17:19.289Z,22.70
2018-12-26T13:19:47.579Z,23.83
2018-12-26T13:22:15.841Z,22.43
2018-12-26T13:24:44.130Z,19.97
2018-12-26T13:27:12.326Z,20.63
2018-12-26T13:29:42.153Z,25.67
2018-12-26T13:32:10.590Z,20.80
2018-12-26T13:34:38.870Z,21.27
2018-12-26T13:37:07.066Z,25.27
2018-12-26T13:39:35.349Z,22.57
2018-12-26T13:42:03.540Z,22.20
2018-12-26T13:44:31.826Z,22.17
2018-12-26T13:47:00.026Z,22.07
2018-12-26T13:49:28.313Z,24.03
2018-12-26T13:51:56.792Z,22.00
2018-12-26T13:54:25.082Z,20.60
2018-12-26T13:56:53.402Z,22.37
2018-12-26T13:59:21.618Z,24.27
2018-12-26T14:01:49.889Z,21.97
2018-12-26T14:04:18.105Z,23.50
2018-12-26T14:06:46.306Z,24.00
2018-12-26T14:09:14.602Z,22.00
2018-12-26T14:11:42.870Z,22.70
2018-12-26T14:14:12.022Z,20.90
2018-12-26T14:16:40.282Z,21.17
2018-12-26T14:19:08.493Z,20.27
2018-12-26T14:21:36.685Z,20.07
2018-12-26T14:24:04.985Z,22.07
2018-12-26T14:26:33.251Z,21.07
2018-12-26T14:29:01.518Z,20.60
2018-12-26T14:31:29.738Z,20.70
2018-12-26T14:33:58.014Z,22.67
2018-12-26T14:36:26.302Z,21.97
2018-12-26T14:38:54.498Z,27.70
2018-12-26T14:41:22.781Z,21.80
2018-12-26T14:43:50.974Z,21.80
2018-12-26T14:46:19.267Z,21.87
2018-12-26T14:48:47.525Z,21.53
2018-12-26T14:51:15.742Z,22.77
2018-12-26T14:53:43.938Z,24.67
2018-12-26T14:56:12.154Z,22.23
2018-12-26T14:58:40.431Z,23.03
2018-12-26T15:01:08.718Z,22.80
2018-12-26T15:03:36.984Z,25.00
2018-12-26T15:06:05.272Z,23.93
2018-12-26T15:08:33.538Z,28.90
2018-12-26T15:11:01.826Z,23.13
2018-12-26T15:13:30.013Z,25.33
2018-12-26T15:15:58.222Z,30.10
2018-12-26T15:18:26.486Z,28.00
2018-12-26T15:20:54.702Z,25.10
2018-12-26T15:23:22.967Z,30.53
2018-12-26T15:25:51.259Z,24.30
2018-12-26T15:28:19.529Z,27.27
2018-12-26T15:30:47.818Z,23.60
2018-12-26T15:33:16.089Z,21.27
2018-12-26T15:35:44.382Z,25.50
2018-12-26T15:38:12.641Z,24.33
2018-12-26T15:40:40.854Z,25.00
2018-12-26T15:43:09.073Z,23.10
2018-12-26T15:45:37.290Z,26.13
2018-12-26T15:48:05.498Z,24.67
2018-12-26T15:50:33.785Z,21.00
2018-12-26T15:53:02.125Z,25.40
2018-12-26T15:55:30.334Z,24.60
2018-12-26T15:57:58.625Z,25.50
2018-12-26T16:00:26.901Z,22.77
2018-12-26T16:02:55.121Z,22.93
2018-12-26T16:05:23.394Z,26.57
2018-12-26T16:07:51.614Z,26.70
2018-12-26T16:10:19.895Z,26.73
2018-12-26T16:12:48.185Z,20.13
2018-12-26T16:15:16.377Z,27.30
2018-12-26T16:17:44.594Z,24.13
2018-12-26T16:20:12.797Z,29.33
2018-12-26T16:22:41.087Z,25.90
2018-12-26T16:25:09.358Z,27.40
2018-12-26T16:27:37.646Z,25.60
2018-12-26T16:30:06.718Z,28.70
2018-12-26T16:32:35.018Z,29.47
2018-12-26T16:35:03.286Z,29.50
2018-12-26T16:37:31.574Z,31.77
2018-12-26T16:39:59.770Z,26.70
2018-12-26T16:42:28.057Z,25.50
2018-12-26T16:44:56.249Z,29.43
2018-12-26T16:47:24.465Z,27.80
2018-12-26T16:49:52.666Z,30.70
2018-12-26T16:52:20.957Z,29.00
2018-12-26T16:54:49.231Z,29.80
2018-12-26T16:57:17.522Z,27.93
2018-12-26T16:59:45.786Z,26.57
2018-12-26T17:02:14.066Z,27.43
2018-12-26T17:04:42.342Z,27.57
2018-12-26T17:07:10.643Z,29.07
2018-12-26T17:09:38.907Z,25.47
2018-12-26T17:12:07.117Z,25.80
2018-12-26T17:14:35.305Z,28.43
2018-12-26T17:17:03.506Z,26.80
2018-12-26T17:19:31.794Z,23.90
2018-12-26T17:21:59.986Z,26.80
2018-12-26T17:24:28.206Z,31.53
2018-12-26T17:26:56.474Z,31.03
2018-12-26T17:29:24.762Z,31.93
2018-12-26T17:31:52.964Z,27.97
2018-12-26T17:34:21.262Z,26.53
2018-12-26T17:36:49.530Z,32.57
2018-12-26T17:39:17.753Z,27.93
2018-12-26T17:41:46.018Z,29.77
2018-12-26T17:44:14.316Z,27.50
2018-12-26T17:46:42.586Z,26.33
2018-12-26T17:49:10.877Z,30.20
2018-12-26T17:51:39.150Z,24.50
2018-12-26T17:54:08.898Z,28.47
2018-12-26T17:56:38.630Z,25.53
2018-12-26T17:59:11.073Z,29.23
2018-12-26T18:01:47.125Z,29.20
2018-12-26T18:04:15.410Z,27.77
2018-12-26T18:06:43.610Z,30.90
2018-12-26T18:09:11.899Z,28.23
2018-12-26T18:11:40.173Z,32.10
2018-12-26T18:14:08.395Z,35.80
2018-12-26T18:16:36.667Z,27.63
2018-12-26T18:19:04.966Z,28.07
2018-12-26T18:21:33.159Z,26.87
2018-12-26T18:24:01.455Z,27.57
2018-12-26T18:26:29.789Z,26.43
2018-12-26T18:28:58.078Z,29.37
2018-12-26T18:31:26.273Z,29.23
2018-12-26T18:33:54.565Z,26.07
2018-12-26T18:36:22.826Z,30.27
2018-12-26T18:38:51.045Z,27.27
2018-12-26T18:41:19.718Z,26.90
2018-12-26T18:43:47.988Z,30.97
2018-12-26T18:46:16.282Z,29.83
2018-12-26T18:48:44.486Z,27.30
2018-12-26T18:51:12.708Z,31.97
2018-12-26T18:53:40.974Z,31.50
2018-12-26T18:56:09.265Z,32.87
2018-12-26T18:58:37.533Z,31.60
2018-12-26T19:01:05.826Z,30.77
2018-12-26T19:03:34.097Z,27.93
2018-12-26T19:06:02.387Z,32.30
2018-12-26T19:08:30.658Z,30.47
2018-12-26T19:10:58.883Z,31.13
2018-12-26T19:13:27.145Z,32.17
2018-12-26T19:15:55.366Z,29.23
2018-12-26T19:18:23.639Z,30.90
2018-12-26T19:20:51.938Z,35.60
2018-12-26T19:23:20.130Z,30.80
2018-12-26T19:25:48.350Z,37.50
2018-12-26T19:28:16.626Z,32.53
2018-12-26T19:30:44.920Z,29.53
2018-12-26T19:33:13.192Z,30.17
2018-12-26T19:35:41.486Z,30.43
2018-12-26T19:38:09.745Z,34.73
2018-12-26T19:40:37.962Z,33.43
2018-12-26T19:43:06.230Z,30.37
2018-12-26T19:45:34.526Z,30.33
2018-12-26T19:48:02.797Z,32.10
2018-12-26T19:50:31.095Z,31.20
2018-12-26T19:52:59.362Z,34.30
2018-12-26T19:55:27.702Z,34.57
2018-12-26T19:57:55.945Z,32.57
2018-12-26T20:00:24.171Z,37.50
2018-12-26T20:02:52.438Z,34.67
2018-12-26T20:05:20.654Z,36.97
2018-12-26T20:07:48.849Z,39.17
2018-12-26T20:10:17.046Z,33.30
2018-12-26T20:12:45.345Z,32.27
2018-12-26T20:15:13.614Z,32.93
2018-12-26T20:17:41.903Z,36.63
2018-12-26T20:20:10.179Z,36.20
2018-12-26T20:22:38.475Z,34.67
2018-12-26T20:25:06.810Z,34.77
2018-12-26T20:27:35.103Z,36.43
2018-12-26T20:30:03.733Z,33.17
2018-12-26T20:32:32.018Z,32.17
2018-12-26T20:35:00.298Z,37.80
2018-12-26T20:37:28.582Z,35.53
2018-12-26T20:39:56.849Z,33.83
2018-12-26T20:42:25.064Z,33.20
2018-12-26T20:44:53.334Z,33.90
2018-12-26T20:47:21.622Z,27.57
2018-12-26T20:49:49.890Z,30.03
2018-12-26T20:52:18.101Z,32.93
2018-12-26T20:54:46.292Z,30.37
2018-12-26T20:57:14.581Z,39.13
2018-12-26T20:59:42.786Z,33.93
2018-12-26T21:02:11.086Z,31.17
2018-12-26T21:04:39.350Z,33.17
2018-12-26T21:07:07.643Z,30.73
2018-12-26T21:09:35.905Z,34.60
2018-12-26T21:12:04.202Z,31.87
2018-12-26T21:14:32.405Z,36.90
2018-12-26T21:17:00.698Z,31.37
2018-12-26T21:19:28.978Z,30.67
2018-12-26T21:21:57.269Z,32.93
2018-12-26T21:24:25.541Z,32.17
2018-12-26T21:26:53.810Z,31.90
2018-12-26T21:29:22.115Z,31.90
2018-12-26T21:31:50.378Z,28.80
2018-12-26T21:34:18.597Z,31.60
2018-12-26T21:36:46.870Z,35.93
2018-12-26T21:39:15.162Z,34.67
2018-12-26T21:41:43.426Z,33.63
2018-12-26T21:44:11.712Z,35.60
2018-12-26T21:46:39.901Z,29.63
2018-12-26T21:49:08.190Z,37.47
2018-12-26T21:51:36.394Z,37.43
2018-12-26T21:54:04.685Z,34.70
2018-12-26T21:56:32.877Z,36.97
2018-12-26T21:59:01.165Z,34.50
2018-12-26T22:01:29.357Z,34.70
2018-12-26T22:03:57.573Z,33.50
2018-12-26T22:06:25.845Z,40.00
2018-12-26T22:08:54.133Z,35.43
2018-12-26T22:11:22.329Z,36.33
2018-12-26T22:13:50.549Z,41.40
2018-12-26T22:16:18.738Z,37.13
2018-12-26T22:18:47.034Z,39.93
2018-12-26T22:21:15.299Z,37.23
2018-12-26T22:23:43.602Z,34.70
2018-12-26T22:26:11.866Z,34.87
2018-12-26T22:28:40.087Z,38.10
2018-12-26T22:31:08.355Z,38.07
2018-12-26T22:33:36.574Z,39.83
2018-12-26T22:36:04.842Z,38.50
2018-12-26T22:38:33.053Z,30.77
2018-12-26T22:41:01.316Z,30.40
2018-12-26T22:43:29.554Z,32.03
2018-12-26T22:45:57.763Z,33.50
2018-12-26T22:48:26.027Z,28.83
2018-12-26T22:50:54.313Z,26.53
2018-12-26T22:53:22.587Z,29.33
2018-12-26T22:55:50.801Z,31.70
2018-12-26T22:58:19.006Z,29.40
2018-12-26T23:00:47.357Z,32.27
2018-12-26T23:03:15.558Z,34.67
2018-12-26T23:05:43.850Z,29.73
2018-12-26T23:08:12.118Z,31.63
2018-12-26T23:10:40.329Z,27.73
2018-12-26T23:13:08.521Z,29.30
2018-12-26T23:15:36.737Z,31.47
2018-12-26T23:18:04.930Z,31.67
2018-12-26T23:20:33.230Z,32.50
2018-12-26T23:23:01.498Z,29.87
2018-12-26T23:25:29.727Z,27.47
2018-12-26T23:27:57.998Z,31.50
2018-12-26T23:30:26.231Z,30.20
2018-12-26T23:32:54.497Z,33.97
2018-12-26T23:35:22.713Z,30.80
2018-12-26T23:37:50.905Z,33.40
2018-12-26T23:40:19.133Z,30.43
2018-12-26T23:42:47.397Z,33.80
2018-12-26T23:45:15.614Z,31.80
2018-12-26T23:47:43.817Z,31.90
2018-12-26T23:50:12.039Z,32.33
2018-12-26T23:52:40.386Z,32.63
2018-12-26T23:55:08.677Z,35.30
2018-12-26T23:57:36.946Z,38.53
